createdAt,value
2018-01-22T00:02:21.663Z,15.83
2018-01-22T00:04:51.245Z,16.80
2018-01-22T00:07:20.733Z,15.07
2018-01-22T00:09:50.180Z,16.77
2018-01-22T00:12:20.155Z,16.00
2018-01-22T00:14:49.715Z,16.37
2018-01-22T00:17:19.242Z,16.73
2018-01-22T00:19:48.918Z,15.43
2018-01-22T00:22:18.431Z,15.93
2018-01-22T00:24:47.657Z,16.63
2018-01-22T00:27:17.511Z,16.13
2018-01-22T00:29:47.009Z,17.47
2018-01-22T00:32:16.547Z,16.57
2018-01-22T00:34:46.556Z,16.30
2018-01-22T00:37:16.392Z,16.90
2018-01-22T00:39:46.028Z,18.03
2018-01-22T00:42:17.663Z,17.60
2018-01-22T00:44:47.215Z,18.17
2018-01-22T00:47:17.504Z,17.27
2018-01-22T00:49:47.030Z,17.67
2018-01-22T00:52:16.566Z,19.13
2018-01-22T00:54:46.089Z,17.70
2018-01-22T00:57:17.833Z,17.93
2018-01-22T00:59:47.333Z,17.77
2018-01-22T01:02:16.828Z,18.10
2018-01-22T01:04:46.335Z,19.77
2018-01-22T01:07:17.180Z,16.77
2018-01-22T01:09:46.922Z,19.90
2018-01-22T01:12:16.780Z,17.83
2018-01-22T01:14:46.424Z,18.60
2018-01-22T01:17:15.929Z,18.10
2018-01-22T01:19:46.512Z,17.47
2018-01-22T01:22:16.161Z,17.40
2018-01-22T01:24:47.390Z,16.70
2018-01-22T01:27:16.888Z,17.53
2018-01-22T01:29:46.381Z,17.03
2018-01-22T01:32:15.876Z,16.00
2018-01-22T01:34:45.428Z,16.80
2018-01-22T01:37:16.530Z,17.77
2018-01-22T01:39:46.480Z,16.53
2018-01-22T01:42:16.257Z,18.33
2018-01-22T01:44:47.645Z,17.83
2018-01-22T01:47:17.137Z,18.17
2018-01-22T01:49:46.628Z,19.10
2018-01-22T01:52:16.890Z,18.87
2018-01-22T01:54:47.254Z,17.73
2018-01-22T01:57:16.768Z,18.10
2018-01-22T01:59:46.282Z,19.53
2018-01-22T02:02:17.833Z,19.07
2018-01-22T02:04:47.776Z,19.50
2018-01-22T02:07:17.256Z,20.13
2018-01-22T02:09:46.751Z,20.40
2018-01-22T02:12:16.256Z,20.03
2018-01-22T02:14:46.883Z,18.77
2018-01-22T02:17:16.130Z,20.83
2018-01-22T02:19:47.208Z,20.47
2018-01-22T02:22:16.376Z,19.60
2018-01-22T02:24:48.979Z,19.80
2018-01-22T02:27:18.475Z,18.87
2018-01-22T02:29:47.979Z,19.27
2018-01-22T02:32:17.475Z,20.10
2018-01-22T02:34:46.957Z,21.23
2018-01-22T02:37:16.379Z,21.07
2018-01-22T02:39:45.907Z,20.77
2018-01-22T02:42:15.459Z,20.27
2018-01-22T02:44:44.631Z,20.37
2018-01-22T02:47:16.797Z,20.63
2018-01-22T02:49:46.281Z,20.93
2018-01-22T02:52:17.430Z,21.37
2018-01-22T02:54:46.930Z,20.90
2018-01-22T02:57:16.636Z,21.03
2018-01-22T02:59:46.141Z,21.27
2018-01-22T03:02:17.105Z,20.40
2018-01-22T03:04:46.693Z,21.07
2018-01-22T03:07:16.501Z,20.27
2018-01-22T03:09:46.031Z,22.33
2018-01-22T03:12:17.283Z,21.10
2018-01-22T03:14:46.987Z,20.93
2018-01-22T03:17:16.154Z,21.03
2018-01-22T03:19:47.488Z,21.77
2018-01-22T03:22:17.009Z,21.30
2018-01-22T03:24:46.520Z,21.20
2018-01-22T03:27:16.017Z,19.90
2018-01-22T03:29:46.271Z,21.63
2018-01-22T03:32:17.264Z,21.07
2018-01-22T03:34:46.803Z,19.90
2018-01-22T03:37:16.288Z,20.03
2018-01-22T03:39:47.548Z,19.83
2018-01-22T03:42:17.811Z,19.80
2018-01-22T03:44:47.407Z,20.17
2018-01-22T03:47:16.919Z,18.27
2018-01-22T03:49:46.428Z,18.50
2018-01-22T03:52:15.984Z,18.63
2018-01-22T03:54:47.496Z,20.03
2018-01-22T03:57:17.003Z,18.80
2018-01-22T03:59:46.500Z,16.30
2018-01-22T04:02:16.003Z,17.97
2018-01-22T04:04:47.455Z,18.03
2018-01-22T04:07:17.751Z,17.23
2018-01-22T04:09:48.576Z,18.60
2018-01-22T04:12:17.875Z,18.03
2018-01-22T04:14:47.088Z,17.80
2018-01-22T04:17:16.617Z,18.97
2018-01-22T04:19:46.133Z,17.30
2018-01-22T04:22:17.983Z,18.33
2018-01-22T04:24:47.467Z,18.10
2018-01-22T04:27:16.985Z,17.57
2018-01-22T04:29:46.482Z,19.40
2018-01-22T04:32:16.051Z,18.40
2018-01-22T04:34:47.441Z,17.53
2018-01-22T04:37:16.957Z,17.70
2018-01-22T04:39:46.848Z,18.67
2018-01-22T04:42:16.331Z,17.07
2018-01-22T04:44:46.984Z,17.57
2018-01-22T04:47:16.533Z,17.40
2018-01-22T04:49:46.041Z,18.07
2018-01-22T04:52:17.120Z,18.63
2018-01-22T04:54:46.644Z,18.60
2018-01-22T04:57:16.479Z,18.30
2018-01-22T04:59:46.026Z,18.33
2018-01-22T05:02:17.710Z,17.40
2018-01-22T05:04:46.998Z,18.13
2018-01-22T05:07:16.805Z,17.80
2018-01-22T05:09:46.310Z,18.47
2018-01-22T05:12:15.945Z,17.80
2018-01-22T05:14:47.477Z,19.00
2018-01-22T05:17:16.784Z,19.07
2018-01-22T05:19:46.363Z,18.37
2018-01-22T05:22:16.074Z,19.80
2018-01-22T05:24:47.280Z,18.43
2018-01-22T05:27:17.048Z,19.03
2018-01-22T05:29:46.560Z,19.40
2018-01-22T05:32:16.108Z,18.40
2018-01-22T05:34:47.469Z,17.83
2018-01-22T05:37:17.410Z,19.17
2018-01-22T05:39:47.059Z,19.70
2018-01-22T05:42:16.568Z,21.30
2018-01-22T05:44:46.110Z,20.37
2018-01-22T05:47:15.891Z,20.50
2018-01-22T05:49:45.406Z,20.60
2018-01-22T05:52:16.376Z,20.70
2018-01-22T05:54:45.884Z,21.87
2018-01-22T05:57:15.180Z,21.40
2018-01-22T05:59:47.047Z,22.77
2018-01-22T06:02:16.350Z,23.43
2018-01-22T06:04:46.988Z,25.77
2018-01-22T06:07:16.514Z,24.00
2018-01-22T06:09:45.832Z,23.97
2018-01-22T06:12:15.379Z,24.20
2018-01-22T06:14:46.657Z,26.23
2018-01-22T06:17:16.140Z,27.43
2018-01-22T06:19:48.240Z,33.27
2018-01-22T06:22:17.554Z,29.67
2018-01-22T06:24:47.060Z,31.00
2018-01-22T06:27:16.573Z,33.80
2018-01-22T06:29:46.084Z,35.70
2018-01-22T06:32:17.642Z,38.63
2018-01-22T06:34:47.912Z,40.13
2018-01-22T06:37:18.527Z,38.07
2018-01-22T06:39:48.118Z,37.43
2018-01-22T06:42:18.049Z,42.87
2018-01-22T06:44:47.691Z,39.97
2018-01-22T06:47:17.216Z,42.53
2018-01-22T06:49:47.007Z,43.47
2018-01-22T06:52:16.524Z,42.83
2018-01-22T06:54:46.036Z,42.33
2018-01-22T06:57:17.074Z,42.77
2018-01-22T06:59:47.478Z,41.90
2018-01-22T07:02:16.973Z,38.77
2018-01-22T07:04:46.472Z,39.30
2018-01-22T07:07:15.976Z,38.33
2018-01-22T07:09:47.776Z,39.90
2018-01-22T07:12:17.292Z,38.37
2018-01-22T07:14:47.002Z,36.57
2018-01-22T07:17:16.512Z,39.13
2018-01-22T07:19:46.145Z,37.13
2018-01-22T07:22:17.511Z,35.63
2018-01-22T07:24:47.786Z,36.23
2018-01-22T07:27:17.607Z,34.83
2018-01-22T07:29:47.147Z,34.20
2018-01-22T07:32:16.817Z,38.80
2018-01-22T07:34:46.333Z,35.73
2018-01-22T07:37:17.151Z,35.07
2018-01-22T07:39:46.655Z,35.30
2018-01-22T07:42:16.145Z,36.63
2018-01-22T07:44:47.096Z,37.07
2018-01-22T07:47:16.660Z,37.40
2018-01-22T07:49:46.512Z,34.27
2018-01-22T07:52:16.003Z,36.87
2018-01-22T07:54:47.078Z,37.50
2018-01-22T07:57:16.637Z,37.17
2018-01-22T07:59:46.140Z,32.33
2018-01-22T08:02:17.155Z,33.03
2018-01-22T08:04:46.815Z,32.77
2018-01-22T08:07:16.379Z,32.90
2018-01-22T08:09:46.001Z,30.57
2018-01-22T08:12:16.259Z,29.27
2018-01-22T08:14:48.275Z,27.90
2018-01-22T08:17:18.032Z,26.87
2018-01-22T08:19:47.532Z,27.13
2018-01-22T08:22:18.673Z,26.80
2018-01-22T08:24:48.363Z,28.53
2018-01-22T08:27:17.881Z,26.97
2018-01-22T08:29:48.044Z,24.90
2018-01-22T08:32:17.527Z,25.60
2018-01-22T08:34:47.784Z,25.00
2018-01-22T08:37:17.272Z,22.67
2018-01-22T08:39:47.003Z,22.77
2018-01-22T08:42:17.733Z,24.30
2018-01-22T08:44:47.352Z,22.80
2018-01-22T08:47:16.884Z,20.97
2018-01-22T08:49:46.476Z,20.80
2018-01-22T08:52:17.168Z,21.23
2018-01-22T08:54:48.028Z,19.30
2018-01-22T08:57:17.502Z,17.43
2018-01-22T08:59:47.027Z,16.27
2018-01-22T09:02:16.583Z,14.93
2018-01-22T09:04:46.073Z,13.30
2018-01-22T09:07:17.295Z,13.50
2018-01-22T09:09:47.158Z,12.07
2018-01-22T09:12:16.665Z,13.37
2018-01-22T09:14:46.943Z,11.93
2018-01-22T09:17:16.445Z,10.20
2018-01-22T09:19:45.999Z,10.07
2018-01-22T09:22:17.461Z,10.50
2018-01-22T09:24:48.159Z,10.27
2018-01-22T09:27:17.869Z,9.30
2018-01-22T09:29:47.346Z,9.70
2018-01-22T09:32:16.827Z,9.30
2018-01-22T09:34:47.257Z,8.90
2018-01-22T09:37:16.740Z,8.13
2018-01-22T09:39:46.223Z,7.90
2018-01-22T09:42:16.479Z,7.90
2018-01-22T09:44:45.977Z,7.10
2018-01-22T09:47:17.189Z,6.83
2018-01-22T09:49:47.488Z,7.23
2018-01-22T09:52:16.989Z,6.53
2018-01-22T09:54:46.480Z,6.80
2018-01-22T09:57:16.885Z,7.03
2018-01-22T09:59:46.596Z,7.50
2018-01-22T10:02:16.148Z,6.13
2018-01-22T10:04:47.675Z,7.80
2018-01-22T10:07:17.635Z,7.87
2018-01-22T10:09:48.081Z,6.87
2018-01-22T10:12:17.699Z,7.13
2018-01-22T10:14:47.206Z,7.17
2018-01-22T10:17:16.718Z,7.50
2018-01-22T10:19:47.161Z,8.13
2018-01-22T10:22:16.650Z,7.73
2018-01-22T10:24:46.156Z,6.63
2018-01-22T10:27:17.952Z,7.63
2018-01-22T10:29:47.437Z,7.87
2018-01-22T10:32:16.933Z,7.40
2018-01-22T10:34:46.872Z,6.90
2018-01-22T10:37:17.124Z,8.37
2018-01-22T10:39:46.629Z,7.60
2018-01-22T10:42:16.116Z,6.90
2018-01-22T10:44:47.756Z,6.63
2018-01-22T10:47:17.258Z,7.17
2018-01-22T10:49:46.747Z,6.73
2018-01-22T10:52:16.287Z,7.10
2018-01-22T10:54:47.619Z,7.23
2018-01-22T10:57:17.137Z,7.27
2018-01-22T10:59:46.714Z,7.40
2018-01-22T11:02:17.706Z,7.40
2018-01-22T11:04:47.225Z,7.30
2018-01-22T11:07:16.717Z,7.10
2018-01-22T11:09:47.157Z,7.30
2018-01-22T11:12:16.650Z,6.50
2018-01-22T11:14:46.138Z,7.03
2018-01-22T11:17:16.891Z,7.17
2018-01-22T11:19:46.378Z,6.20
2018-01-22T11:22:18.301Z,7.07
2018-01-22T11:24:48.687Z,6.53
2018-01-22T11:27:18.841Z,6.47
2018-01-22T11:29:48.427Z,5.83
2018-01-22T11:32:17.956Z,7.17
2018-01-22T11:34:47.502Z,6.10
2018-01-22T11:37:17.778Z,7.17
2018-01-22T11:39:47.259Z,7.67
2018-01-22T11:42:16.763Z,7.40
2018-01-22T11:44:46.924Z,9.70
2018-01-22T11:47:16.417Z,7.50
2018-01-22T11:49:46.006Z,8.63
2018-01-22T11:52:17.463Z,7.97
2018-01-22T11:54:47.207Z,8.53
2018-01-22T11:57:16.697Z,8.70
2018-01-22T11:59:46.992Z,8.80
2018-01-22T12:02:16.564Z,8.97
2018-01-22T12:04:46.857Z,8.23
2018-01-22T12:07:17.028Z,9.07
2018-01-22T12:09:46.536Z,8.57
2018-01-22T12:12:16.032Z,7.63
2018-01-22T12:14:47.678Z,8.50
2018-01-22T12:17:17.164Z,7.87
2018-01-22T12:19:46.673Z,9.00
2018-01-22T12:22:16.175Z,8.20
2018-01-22T12:24:46.535Z,8.03
2018-01-22T12:27:16.840Z,8.43
2018-01-22T12:29:46.451Z,7.70
2018-01-22T12:32:16.309Z,6.20
2018-01-22T12:34:47.505Z,7.17
2018-01-22T12:37:17.064Z,6.53
2018-01-22T12:39:46.608Z,6.70
2018-01-22T12:42:16.897Z,6.50
2018-01-22T12:44:46.403Z,7.03
2018-01-22T12:47:17.355Z,6.57
2018-01-22T12:49:47.243Z,6.73
2018-01-22T12:52:16.740Z,6.83
2018-01-22T12:54:46.250Z,6.00
2018-01-22T12:57:16.021Z,6.03
2018-01-22T12:59:47.623Z,6.07
2018-01-22T13:02:16.928Z,5.40
2018-01-22T13:04:46.417Z,5.80
2018-01-22T13:07:16.955Z,5.20
2018-01-22T13:09:46.451Z,5.73
2018-01-22T13:12:15.611Z,6.67
2018-01-22T13:14:46.058Z,6.50
2018-01-22T13:17:17.435Z,6.07
2018-01-22T13:19:47.157Z,5.83
2018-01-22T13:22:16.635Z,6.53
2018-01-22T13:24:46.645Z,5.40
2018-01-22T13:27:16.899Z,5.83
2018-01-22T13:29:46.396Z,5.83
2018-01-22T13:32:15.880Z,5.60
2018-01-22T13:34:46.558Z,6.20
2018-01-22T13:37:16.635Z,6.80
2018-01-22T13:39:46.082Z,5.77
2018-01-22T13:42:17.667Z,5.60
2018-01-22T13:44:46.968Z,5.73
2018-01-22T13:47:16.471Z,5.70
2018-01-22T13:49:46.364Z,4.87
2018-01-22T13:52:18.228Z,5.83
2018-01-22T13:54:48.141Z,5.00
2018-01-22T13:57:17.672Z,4.87
2018-01-22T13:59:47.174Z,5.30
2018-01-22T14:02:17.125Z,5.23
2018-01-22T14:04:47.387Z,5.23
2018-01-22T14:07:16.919Z,5.33
2018-01-22T14:09:46.219Z,5.27
2018-01-22T14:12:18.168Z,5.60
2018-01-22T14:14:47.675Z,5.97
2018-01-22T14:17:17.166Z,5.80
2018-01-22T14:19:46.729Z,5.53
2018-01-22T14:22:16.057Z,5.13
2018-01-22T14:24:47.577Z,5.23
2018-01-22T14:27:17.065Z,5.40
2018-01-22T14:29:46.681Z,5.00
2018-01-22T14:32:16.179Z,6.63
2018-01-22T14:34:46.229Z,5.63
2018-01-22T14:37:15.736Z,5.23
2018-01-22T14:39:46.568Z,5.27
2018-01-22T14:42:16.069Z,5.80
2018-01-22T14:44:47.238Z,5.90
2018-01-22T14:47:17.531Z,5.37
2018-01-22T14:49:48.109Z,5.60
2018-01-22T14:52:17.633Z,5.13
2018-01-22T14:54:47.126Z,5.00
2018-01-22T14:57:16.671Z,5.57
2018-01-22T14:59:46.169Z,4.80
2018-01-22T15:02:17.275Z,5.00
2018-01-22T15:04:46.570Z,5.37
2018-01-22T15:07:16.100Z,5.57
2018-01-22T15:09:47.859Z,5.13
2018-01-22T15:12:17.354Z,4.73
2018-01-22T15:14:46.853Z,5.13
2018-01-22T15:17:17.112Z,5.80
2018-01-22T15:19:46.436Z,4.80
2018-01-22T15:22:15.962Z,5.53
2018-01-22T15:24:47.169Z,5.37
2018-01-22T15:27:16.679Z,5.40
2018-01-22T15:29:46.199Z,5.33
2018-01-22T15:32:16.856Z,5.83
2018-01-22T15:34:46.407Z,4.53
2018-01-22T15:37:15.929Z,4.97
2018-01-22T15:39:46.185Z,5.87
2018-01-22T15:42:16.918Z,5.57
2018-01-22T15:44:46.391Z,6.67
2018-01-22T15:47:18.214Z,5.73
2018-01-22T15:49:47.963Z,5.50
2018-01-22T15:52:17.448Z,5.23
2018-01-22T15:54:46.971Z,4.57
2018-01-22T15:57:16.531Z,6.17
2018-01-22T15:59:46.123Z,6.40
2018-01-22T16:02:17.471Z,6.67
2018-01-22T16:04:46.953Z,5.23
2018-01-22T16:07:17.188Z,6.53
2018-01-22T16:09:46.731Z,5.87
2018-01-22T16:12:16.345Z,6.23
2018-01-22T16:14:46.596Z,6.17
2018-01-22T16:17:17.304Z,5.77
2018-01-22T16:19:46.803Z,5.87
2018-01-22T16:22:16.347Z,7.13
2018-01-22T16:24:48.146Z,5.63
2018-01-22T16:27:18.048Z,6.77
2018-01-22T16:29:47.518Z,5.87
2018-01-22T16:32:17.414Z,7.67
2018-01-22T16:34:46.554Z,5.57
2018-01-22T16:37:16.827Z,5.97
2018-01-22T16:39:46.355Z,6.33
2018-01-22T16:42:16.916Z,6.17
2018-01-22T16:44:47.132Z,6.90
2018-01-22T16:47:22.457Z,7.57
2018-01-22T16:49:51.961Z,6.73
2018-01-22T16:52:21.557Z,7.10
2018-01-22T16:54:51.031Z,6.60
2018-01-22T16:57:20.519Z,6.47
2018-01-22T16:59:50.039Z,6.80
2018-01-22T17:02:19.577Z,6.77
2018-01-22T17:04:49.285Z,6.47
2018-01-22T17:07:19.451Z,5.23
2018-01-22T17:09:49.718Z,6.60
2018-01-22T17:12:19.253Z,5.97
2018-01-22T17:14:48.763Z,5.93
2018-01-22T17:17:18.449Z,6.77
2018-01-22T17:19:47.994Z,8.40
2018-01-22T17:22:17.498Z,6.73
2018-01-22T17:24:47.035Z,7.53
2018-01-22T17:27:16.344Z,7.63
2018-01-22T17:29:45.864Z,7.53
2018-01-22T17:32:15.587Z,7.10
2018-01-22T17:34:45.152Z,5.73
2018-01-22T17:37:14.637Z,7.67
2018-01-22T17:39:44.436Z,6.50
2018-01-22T17:42:13.945Z,7.23
2018-01-22T17:44:44.220Z,7.53
2018-01-22T17:47:13.792Z,7.10
2018-01-22T17:49:43.291Z,7.53
2018-01-22T17:52:13.673Z,6.87
2018-01-22T17:54:43.208Z,6.30
2018-01-22T17:57:12.600Z,6.63
2018-01-22T17:59:43.177Z,7.97
2018-01-22T18:02:12.657Z,7.47
2018-01-22T18:04:42.224Z,7.60
2018-01-22T18:07:12.638Z,7.20
2018-01-22T18:09:41.969Z,6.67
2018-01-22T18:12:11.454Z,7.40
2018-01-22T18:14:41.072Z,6.30
2018-01-22T18:17:10.864Z,6.13
2018-01-22T18:19:40.371Z,6.00
2018-01-22T18:22:09.670Z,6.50
2018-01-22T18:24:39.437Z,7.33
2018-01-22T18:27:08.930Z,7.10
2018-01-22T18:29:38.535Z,7.03
2018-01-22T18:32:08.243Z,6.10
2018-01-22T18:34:37.712Z,5.63
2018-01-22T18:37:07.526Z,7.33
2018-01-22T18:39:37.032Z,6.57
2018-01-22T18:42:06.177Z,6.97
2018-01-22T18:44:35.837Z,7.13
2018-01-22T18:47:05.376Z,7.77
2018-01-22T18:49:34.924Z,6.93
2018-01-22T18:52:04.462Z,7.30
2018-01-22T18:54:34.001Z,8.10
2018-01-22T18:57:03.780Z,6.43
2018-01-22T18:59:34.035Z,6.50
2018-01-22T19:02:04.664Z,7.23
2018-01-22T19:04:34.232Z,6.30
2018-01-22T19:07:03.879Z,6.73
2018-01-22T19:09:33.402Z,6.67
2018-01-22T19:12:02.921Z,7.13
2018-01-22T19:14:32.711Z,6.73
2018-01-22T19:17:02.192Z,6.67
2018-01-22T19:19:31.712Z,6.03
2018-01-22T19:22:01.968Z,6.40
2018-01-22T19:24:31.642Z,6.60
2018-01-22T19:27:01.148Z,6.80
2018-01-22T19:29:30.678Z,6.60
2018-01-22T19:32:00.306Z,7.90
2018-01-22T19:34:29.779Z,7.27
2018-01-22T19:36:59.657Z,8.13
2018-01-22T19:39:29.109Z,7.83
2018-01-22T19:41:58.640Z,7.67
2018-01-22T19:44:28.167Z,6.63
2018-01-22T19:46:59.332Z,7.30
2018-01-22T19:49:28.868Z,6.13
2018-01-22T19:51:58.389Z,6.07
2018-01-22T19:54:27.913Z,6.80
2018-01-22T19:56:57.485Z,6.37
2018-01-22T19:59:27.072Z,6.83
2018-01-22T20:01:56.704Z,6.80
2018-01-22T20:04:26.495Z,6.30
2018-01-22T20:06:56.002Z,6.33
2018-01-22T20:09:25.504Z,7.03
2018-01-22T20:11:55.002Z,5.70
2018-01-22T20:14:24.496Z,7.57
2018-01-22T20:16:54.068Z,6.60
2018-01-22T20:19:23.560Z,7.57
2018-01-22T20:21:53.153Z,6.43
2018-01-22T20:24:22.648Z,6.60
2018-01-22T20:26:52.299Z,6.17
2018-01-22T20:29:21.876Z,5.90
2018-01-22T20:31:51.383Z,6.70
2018-01-22T20:34:20.858Z,6.33
2018-01-22T20:36:50.932Z,6.70
2018-01-22T20:39:20.651Z,5.90
2018-01-22T20:41:50.147Z,6.33
2018-01-22T20:44:19.651Z,6.30
2018-01-22T20:46:49.137Z,7.47
2018-01-22T20:49:19.076Z,5.77
2018-01-22T20:51:48.768Z,6.50
2018-01-22T20:54:18.290Z,6.53
2018-01-22T20:56:47.852Z,6.27
2018-01-22T20:59:17.349Z,6.40
2018-01-22T21:01:46.837Z,6.07
2018-01-22T21:04:16.536Z,6.43
2018-01-22T21:06:46.030Z,7.30
2018-01-22T21:09:15.278Z,6.80
2018-01-22T21:11:46.352Z,6.17
2018-01-22T21:14:16.241Z,6.27
2018-01-22T21:16:47.194Z,6.63
2018-01-22T21:19:16.692Z,5.43
2018-01-22T21:21:46.191Z,6.40
2018-01-22T21:24:16.494Z,6.90
2018-01-22T21:26:45.968Z,7.27
2018-01-22T21:29:15.508Z,7.13
2018-01-22T21:31:46.752Z,6.40
2018-01-22T21:34:16.275Z,7.10
2018-01-22T21:36:48.982Z,7.50
2018-01-22T21:39:18.485Z,6.63
2018-01-22T21:41:47.991Z,7.83
2018-01-22T21:44:17.238Z,7.20
2018-01-22T21:46:46.918Z,7.30
2018-01-22T21:49:16.875Z,8.07
2018-01-22T21:51:46.341Z,7.40
2018-01-22T21:54:17.547Z,7.23
2018-01-22T21:56:47.045Z,8.83
2018-01-22T21:59:16.550Z,9.07
2018-01-22T22:01:46.044Z,8.87
2018-01-22T22:04:17.624Z,7.63
2018-01-22T22:06:47.096Z,8.47
2018-01-22T22:09:16.620Z,7.70
2018-01-22T22:11:46.127Z,8.07
2018-01-22T22:14:17.886Z,8.20
2018-01-22T22:16:47.364Z,8.23
2018-01-22T22:19:17.224Z,6.80
2018-01-22T22:21:47.490Z,6.63
2018-01-22T22:24:17.180Z,8.83
2018-01-22T22:26:46.648Z,6.50
2018-01-22T22:29:16.420Z,8.27
2018-01-22T22:31:46.054Z,7.67
2018-01-22T22:34:17.038Z,8.10
2018-01-22T22:36:46.542Z,7.70
2018-01-22T22:39:16.086Z,8.10
2018-01-22T22:41:47.403Z,8.13
2018-01-22T22:44:16.951Z,7.47
2018-01-22T22:46:46.600Z,7.40
2018-01-22T22:49:16.120Z,7.67
2018-01-22T22:51:47.575Z,7.70
2018-01-22T22:54:17.856Z,8.50
2018-01-22T22:56:47.403Z,7.97
2018-01-22T22:59:16.928Z,7.27
2018-01-22T23:01:46.435Z,8.43
2018-01-22T23:04:16.076Z,7.93
2018-01-22T23:06:47.709Z,7.33
2018-01-22T23:09:17.190Z,7.67
2018-01-22T23:11:46.683Z,7.73
2018-01-22T23:14:16.250Z,7.63
2018-01-22T23:16:47.428Z,7.97
2018-01-22T23:19:16.935Z,8.03
2018-01-22T23:21:46.409Z,8.93
2018-01-22T23:24:16.284Z,7.40
2018-01-22T23:26:47.625Z,7.33
2018-01-22T23:29:17.168Z,7.90
2018-01-22T23:31:46.649Z,7.20
2018-01-22T23:34:16.943Z,7.50
2018-01-22T23:36:46.443Z,7.23
2018-01-22T23:39:16.064Z,7.30
2018-01-22T23:41:47.818Z,7.60
2018-01-22T23:44:17.311Z,7.80
2018-01-22T23:46:46.811Z,7.03
2018-01-22T23:49:16.367Z,7.13
2018-01-22T23:51:48.633Z,8.20
2018-01-22T23:54:20.559Z,6.43
2018-01-22T23:56:50.224Z,8.17
2018-01-22T23:59:19.716Z,6.73
